createdAt,value
2018-05-08T00:00:31.397Z,0
2018-05-08T00:01:03.517Z,0
2018-05-08T00:01:35.514Z,0
2018-05-08T00:02:07.549Z,0
2018-05-08T00:02:39.534Z,0
2018-05-08T00:03:11.547Z,0
2018-05-08T00:03:43.643Z,0
2018-05-08T00:04:15.709Z,0
2018-05-08T00:04:47.868Z,0
2018-05-08T00:05:19.869Z,0
2018-05-08T00:05:51.946Z,0
2018-05-08T00:06:23.945Z,0
2018-05-08T00:06:55.973Z,0
2018-05-08T00:07:28.031Z,0
2018-05-08T00:08:00.181Z,0
2018-05-08T00:08:32.272Z,0
2018-05-08T00:09:04.252Z,0
2018-05-08T00:09:36.330Z,0
2018-05-08T00:10:08.376Z,0
2018-05-08T00:10:40.385Z,0
2018-05-08T00:11:12.453Z,0
2018-05-08T00:11:44.484Z,0
2018-05-08T00:12:16.571Z,0
2018-05-08T00:12:48.622Z,0
2018-05-08T00:13:20.658Z,0
2018-05-08T00:13:52.707Z,0
2018-05-08T00:14:24.829Z,0
2018-05-08T00:14:56.884Z,0
2018-05-08T00:15:28.905Z,0
2018-05-08T00:16:00.967Z,0
2018-05-08T00:16:32.947Z,0
2018-05-08T00:17:04.962Z,0
2018-05-08T00:17:36.994Z,0
2018-05-08T00:18:09.088Z,0
2018-05-08T00:18:41.117Z,0
2018-05-08T00:19:13.131Z,0
2018-05-08T00:19:45.132Z,0
2018-05-08T00:20:17.142Z,0
2018-05-08T00:20:49.154Z,0
2018-05-08T00:21:21.180Z,0
2018-05-08T00:21:53.219Z,0
2018-05-08T00:22:25.266Z,0
2018-05-08T00:22:57.358Z,0
2018-05-08T00:23:29.557Z,0
2018-05-08T00:24:01.620Z,0
2018-05-08T00:24:33.661Z,0
2018-05-08T00:25:05.724Z,0
2018-05-08T00:25:37.739Z,0
2018-05-08T00:26:09.777Z,0
2018-05-08T00:26:41.844Z,0
2018-05-08T00:27:13.861Z,0
2018-05-08T00:27:45.898Z,0
2018-05-08T00:28:17.904Z,0
2018-05-08T00:28:49.907Z,0
2018-05-08T00:29:21.956Z,0
2018-05-08T00:29:53.993Z,0
2018-05-08T00:30:26.024Z,0
2018-05-08T00:30:58.030Z,0
2018-05-08T00:31:30.081Z,0
2018-05-08T00:32:02.103Z,0
2018-05-08T00:32:34.124Z,0
2018-05-08T00:33:06.143Z,0
2018-05-08T00:33:38.195Z,0
2018-05-08T00:34:10.351Z,0
2018-05-08T00:34:42.381Z,0
2018-05-08T00:35:14.435Z,0
2018-05-08T00:35:46.473Z,0
2018-05-08T00:36:18.522Z,0
2018-05-08T00:36:50.589Z,0
2018-05-08T00:37:22.624Z,0
2018-05-08T00:37:54.710Z,0
2018-05-08T00:38:26.721Z,0
2018-05-08T00:38:58.766Z,0
2018-05-08T00:39:30.809Z,0
2018-05-08T00:40:02.880Z,0
2018-05-08T00:40:34.989Z,0
2018-05-08T00:41:07.069Z,0
2018-05-08T00:41:39.072Z,0
2018-05-08T00:42:11.085Z,0
2018-05-08T00:42:43.250Z,0
2018-05-08T00:43:15.288Z,0
2018-05-08T00:43:47.329Z,0
2018-05-08T00:44:19.388Z,0
2018-05-08T00:44:52.230Z,0
2018-05-08T00:45:24.271Z,0
2018-05-08T00:45:56.323Z,0
2018-05-08T00:46:28.296Z,0
2018-05-08T00:47:00.425Z,0
2018-05-08T00:47:32.439Z,0
2018-05-08T00:48:04.420Z,0
2018-05-08T00:48:37.324Z,0
2018-05-08T00:49:09.398Z,0
2018-05-08T00:49:41.393Z,0
2018-05-08T00:50:13.462Z,0
2018-05-08T00:50:45.487Z,0
2018-05-08T00:51:17.493Z,0
2018-05-08T00:51:49.533Z,0
2018-05-08T00:52:21.577Z,0
2018-05-08T00:52:53.600Z,0
2018-05-08T00:53:25.603Z,0
2018-05-08T00:53:57.635Z,0
2018-05-08T00:54:29.683Z,0
2018-05-08T00:55:01.771Z,0
2018-05-08T00:55:33.851Z,0
2018-05-08T00:56:05.928Z,0
2018-05-08T00:56:37.956Z,0
2018-05-08T00:57:10.093Z,0
2018-05-08T00:57:42.925Z,0
2018-05-08T00:58:14.966Z,0
2018-05-08T00:58:46.991Z,0
2018-05-08T00:59:19.043Z,0
2018-05-08T00:59:51.124Z,0
2018-05-08T01:00:23.147Z,0
2018-05-08T01:00:55.184Z,0
2018-05-08T01:01:27.183Z,0
2018-05-08T01:01:59.242Z,0
2018-05-08T01:02:31.260Z,0
2018-05-08T01:03:03.336Z,0
2018-05-08T01:03:35.346Z,0
2018-05-08T01:04:07.318Z,0
2018-05-08T01:04:40.249Z,0
2018-05-08T01:05:12.317Z,0
2018-05-08T01:05:44.432Z,0
2018-05-08T01:06:16.602Z,0
2018-05-08T01:06:48.627Z,0
2018-05-08T01:07:20.653Z,0
2018-05-08T01:07:52.682Z,0
2018-05-08T01:08:24.871Z,0
2018-05-08T01:08:56.952Z,0
2018-05-08T01:09:28.975Z,0
2018-05-08T01:10:00.995Z,0
2018-05-08T01:10:33.041Z,0
2018-05-08T01:11:05.097Z,0
2018-05-08T01:11:37.174Z,0
2018-05-08T01:12:09.204Z,0
2018-05-08T01:12:41.250Z,0
2018-05-08T01:13:13.279Z,0
2018-05-08T01:13:45.295Z,0
2018-05-08T01:14:17.355Z,0
2018-05-08T01:14:49.387Z,0
2018-05-08T01:15:21.435Z,0
2018-05-08T01:15:53.462Z,0
2018-05-08T01:16:25.488Z,0
2018-05-08T01:16:57.600Z,0
2018-05-08T01:17:29.675Z,0
2018-05-08T01:18:01.731Z,0
2018-05-08T01:18:33.787Z,0
2018-05-08T01:19:05.811Z,0
2018-05-08T01:19:37.816Z,0
2018-05-08T01:20:09.854Z,0
2018-05-08T01:20:41.850Z,0
2018-05-08T01:21:13.926Z,0
2018-05-08T01:21:46.159Z,0
2018-05-08T01:22:18.206Z,0
2018-05-08T01:22:50.266Z,0
2018-05-08T01:23:22.325Z,0
2018-05-08T01:23:54.420Z,0
2018-05-08T01:24:26.568Z,0
2018-05-08T01:24:58.607Z,0
2018-05-08T01:25:30.644Z,0
2018-05-08T01:26:02.717Z,0
2018-05-08T01:26:34.768Z,0
2018-05-08T01:27:06.882Z,0
2018-05-08T01:27:38.959Z,0
2018-05-08T01:28:11.680Z,0
2018-05-08T01:28:43.705Z,0
2018-05-08T01:29:15.740Z,0
2018-05-08T01:29:47.753Z,0
2018-05-08T01:30:19.803Z,0
2018-05-08T01:30:51.819Z,0
2018-05-08T01:31:23.827Z,0
2018-05-08T01:31:55.835Z,0
2018-05-08T01:32:27.868Z,0
2018-05-08T01:32:59.952Z,0
2018-05-08T01:33:32.002Z,0
2018-05-08T01:34:04.034Z,0
2018-05-08T01:34:36.197Z,0
2018-05-08T01:35:08.242Z,0
2018-05-08T01:35:40.294Z,0
2018-05-08T01:36:12.321Z,0
2018-05-08T01:36:44.362Z,0
2018-05-08T01:37:16.367Z,0
2018-05-08T01:37:48.385Z,0
2018-05-08T01:38:20.472Z,0
2018-05-08T01:38:52.609Z,0
2018-05-08T01:39:24.634Z,0
2018-05-08T01:39:56.679Z,0
2018-05-08T01:40:28.679Z,0
2018-05-08T01:41:01.353Z,0
2018-05-08T01:41:33.388Z,0
2018-05-08T01:42:05.427Z,0
2018-05-08T01:42:37.490Z,0
2018-05-08T01:43:09.649Z,0
2018-05-08T01:43:41.661Z,0
2018-05-08T01:44:13.694Z,0
2018-05-08T01:44:45.714Z,0
2018-05-08T01:45:17.748Z,0
2018-05-08T01:45:49.740Z,0
2018-05-08T01:46:21.742Z,0
2018-05-08T01:46:53.772Z,0
2018-05-08T01:47:25.853Z,0
2018-05-08T01:47:57.887Z,0
2018-05-08T01:48:29.885Z,0
2018-05-08T01:49:01.978Z,0
2018-05-08T01:49:34.005Z,0
2018-05-08T01:50:06.025Z,0
2018-05-08T01:50:38.054Z,0
2018-05-08T01:51:10.073Z,0
2018-05-08T01:51:42.106Z,0
2018-05-08T01:52:14.142Z,0
2018-05-08T01:52:46.192Z,0
2018-05-08T01:53:18.217Z,0
2018-05-08T01:53:50.235Z,0
2018-05-08T01:54:22.242Z,0
2018-05-08T01:54:54.292Z,0
2018-05-08T01:55:26.334Z,0
2018-05-08T01:55:58.335Z,0
2018-05-08T01:56:30.385Z,0
2018-05-08T01:57:02.446Z,0
2018-05-08T01:57:34.481Z,0
2018-05-08T01:58:06.491Z,0
2018-05-08T01:58:38.508Z,0
2018-05-08T01:59:10.538Z,0
2018-05-08T01:59:42.573Z,0
2018-05-08T02:00:14.606Z,0
2018-05-08T02:00:46.616Z,0
2018-05-08T02:01:18.639Z,0
2018-05-08T02:01:50.677Z,0
2018-05-08T02:02:22.751Z,0
2018-05-08T02:02:54.760Z,0
2018-05-08T02:03:26.788Z,0
2018-05-08T02:03:58.811Z,0
2018-05-08T02:04:30.809Z,0
2018-05-08T02:05:02.870Z,0
2018-05-08T02:05:34.916Z,0
2018-05-08T02:06:07.013Z,0
2018-05-08T02:06:39.074Z,0
2018-05-08T02:07:11.067Z,0
2018-05-08T02:07:43.075Z,0
2018-05-08T02:08:15.112Z,0
2018-05-08T02:08:47.172Z,0
2018-05-08T02:09:19.301Z,0
2018-05-08T02:09:51.354Z,0
2018-05-08T02:10:23.378Z,0
2018-05-08T02:10:55.411Z,0
2018-05-08T02:11:27.459Z,0
2018-05-08T02:11:59.600Z,0
2018-05-08T02:12:31.633Z,0
2018-05-08T02:13:03.602Z,0
2018-05-08T02:13:35.639Z,0
2018-05-08T02:14:07.684Z,0
2018-05-08T02:14:39.743Z,0
2018-05-08T02:15:11.799Z,0
2018-05-08T02:15:43.913Z,0
2018-05-08T02:16:15.940Z,0
2018-05-08T02:16:48.010Z,0
2018-05-08T02:17:20.006Z,0
2018-05-08T02:17:52.044Z,0
2018-05-08T02:18:24.085Z,0
2018-05-08T02:18:56.098Z,0
2018-05-08T02:19:28.100Z,0
2018-05-08T02:20:00.180Z,0
2018-05-08T02:20:32.181Z,0
2018-05-08T02:21:04.226Z,0
2018-05-08T02:21:36.266Z,0
2018-05-08T02:22:08.292Z,0
2018-05-08T02:22:40.328Z,0
2018-05-08T02:23:12.362Z,0
2018-05-08T02:23:44.497Z,0
2018-05-08T02:24:16.512Z,0
2018-05-08T02:24:48.541Z,0
2018-05-08T02:25:20.555Z,0
2018-05-08T02:25:52.700Z,0
2018-05-08T02:26:24.877Z,0
2018-05-08T02:26:56.902Z,0
2018-05-08T02:27:28.963Z,0
2018-05-08T02:28:01.007Z,0
2018-05-08T02:28:36.918Z,0
2018-05-08T02:29:08.942Z,0
2018-05-08T02:29:40.968Z,0
2018-05-08T02:30:13.022Z,0
2018-05-08T02:30:45.013Z,0
2018-05-08T02:31:17.067Z,0
2018-05-08T02:31:49.129Z,0
2018-05-08T02:32:21.190Z,0
2018-05-08T02:32:53.190Z,0
2018-05-08T02:33:25.242Z,0
2018-05-08T02:33:57.339Z,0
2018-05-08T02:34:29.369Z,0
2018-05-08T02:35:01.382Z,0
2018-05-08T02:35:33.441Z,0
2018-05-08T02:36:05.505Z,0
2018-05-08T02:36:37.525Z,0
2018-05-08T02:37:09.535Z,0
2018-05-08T02:37:41.568Z,0
2018-05-08T02:38:13.599Z,0
2018-05-08T02:38:45.635Z,0
2018-05-08T02:39:17.633Z,0
2018-05-08T02:39:49.632Z,0
2018-05-08T02:40:21.692Z,0
2018-05-08T02:40:53.691Z,0
2018-05-08T02:41:25.722Z,0
2018-05-08T02:41:57.772Z,0
2018-05-08T02:42:29.785Z,0
2018-05-08T02:43:01.809Z,0
2018-05-08T02:43:33.850Z,0
2018-05-08T02:44:05.897Z,0
2018-05-08T02:44:37.930Z,0
2018-05-08T02:45:09.981Z,0
2018-05-08T02:45:41.983Z,0
2018-05-08T02:46:13.977Z,0
2018-05-08T02:46:46.036Z,0
2018-05-08T02:47:18.154Z,0
2018-05-08T02:47:50.254Z,0
2018-05-08T02:48:22.233Z,0
2018-05-08T02:48:54.286Z,0
2018-05-08T02:49:26.306Z,0
2018-05-08T02:49:58.357Z,0
2018-05-08T02:50:30.416Z,0
2018-05-08T02:51:02.505Z,0
2018-05-08T02:51:34.698Z,0
2018-05-08T02:52:06.745Z,0
2018-05-08T02:52:38.856Z,0
2018-05-08T02:53:10.999Z,0
2018-05-08T02:53:43.061Z,0
2018-05-08T02:54:15.075Z,0
2018-05-08T02:54:47.216Z,0
2018-05-08T02:55:19.289Z,0
2018-05-08T02:55:51.323Z,0
2018-05-08T02:56:23.368Z,0
2018-05-08T02:56:56.137Z,0
2018-05-08T02:57:28.986Z,0
2018-05-08T02:58:00.995Z,0
2018-05-08T02:58:33.030Z,0
2018-05-08T02:59:05.155Z,0
2018-05-08T02:59:37.104Z,0
2018-05-08T03:00:09.144Z,0
2018-05-08T03:00:41.189Z,0
2018-05-08T03:01:13.201Z,0
2018-05-08T03:01:45.243Z,0
2018-05-08T03:02:17.271Z,0
2018-05-08T03:02:49.295Z,0
2018-05-08T03:03:21.342Z,0
2018-05-08T03:03:53.383Z,0
2018-05-08T03:04:25.520Z,0
2018-05-08T03:04:57.534Z,0
2018-05-08T03:05:29.583Z,0
2018-05-08T03:06:01.731Z,0
2018-05-08T03:06:33.845Z,0
2018-05-08T03:07:05.887Z,0
2018-05-08T03:07:37.928Z,0
2018-05-08T03:08:10.026Z,0
2018-05-08T03:08:42.058Z,0
2018-05-08T03:09:14.085Z,0
2018-05-08T03:09:46.140Z,0
2018-05-08T03:10:18.166Z,0
2018-05-08T03:10:50.190Z,0
2018-05-08T03:11:22.217Z,0
2018-05-08T03:11:54.201Z,0
2018-05-08T03:12:26.215Z,0
2018-05-08T03:12:58.274Z,0
2018-05-08T03:13:30.268Z,4
2018-05-08T03:14:02.294Z,4
2018-05-08T03:14:34.314Z,4
2018-05-08T03:15:06.353Z,4
2018-05-08T03:15:38.419Z,0
2018-05-08T03:16:10.471Z,0
2018-05-08T03:16:42.506Z,0
2018-05-08T03:17:14.628Z,4
2018-05-08T03:17:46.646Z,4
2018-05-08T03:18:18.692Z,4
2018-05-08T03:18:50.711Z,4
2018-05-08T03:19:22.768Z,4
2018-05-08T03:19:54.803Z,4
2018-05-08T03:20:26.847Z,4
2018-05-08T03:20:58.921Z,4
2018-05-08T03:21:30.986Z,8
2018-05-08T03:22:03.046Z,4
2018-05-08T03:22:35.089Z,4
2018-05-08T03:23:07.133Z,8
2018-05-08T03:23:39.137Z,4
2018-05-08T03:24:11.170Z,8
2018-05-08T03:24:43.199Z,8
2018-05-08T03:25:15.296Z,8
2018-05-08T03:25:47.309Z,8
2018-05-08T03:26:19.366Z,12
2018-05-08T03:26:51.468Z,8
2018-05-08T03:27:23.553Z,12
2018-05-08T03:27:55.576Z,12
2018-05-08T03:28:27.597Z,12
2018-05-08T03:28:59.587Z,12
2018-05-08T03:29:31.626Z,16
2018-05-08T03:30:03.652Z,16
2018-05-08T03:30:35.641Z,20
2018-05-08T03:31:07.682Z,20
2018-05-08T03:31:39.711Z,20
2018-05-08T03:32:11.724Z,20
2018-05-08T03:32:43.747Z,20
2018-05-08T03:33:15.834Z,24
2018-05-08T03:33:47.870Z,28
2018-05-08T03:34:19.870Z,28
2018-05-08T03:34:51.921Z,32
2018-05-08T03:35:23.978Z,32
2018-05-08T03:35:55.998Z,32
2018-05-08T03:36:28.019Z,36
2018-05-08T03:37:00.016Z,36
2018-05-08T03:37:32.041Z,36
2018-05-08T03:38:04.089Z,44
2018-05-08T03:38:36.157Z,44
2018-05-08T03:39:08.151Z,48
2018-05-08T03:39:40.212Z,48
2018-05-08T03:40:12.194Z,52
2018-05-08T03:40:44.235Z,56
2018-05-08T03:41:16.265Z,56
2018-05-08T03:41:48.305Z,60
2018-05-08T03:42:20.437Z,64
2018-05-08T03:42:52.477Z,68
2018-05-08T03:43:24.517Z,68
2018-05-08T03:43:56.710Z,72
2018-05-08T03:44:28.769Z,76
2018-05-08T03:45:00.802Z,80
2018-05-08T03:45:32.842Z,84
2018-05-08T03:46:04.869Z,84
2018-05-08T03:46:36.956Z,88
2018-05-08T03:47:08.977Z,92
2018-05-08T03:47:41.028Z,100
2018-05-08T03:48:13.052Z,100
2018-05-08T03:48:45.067Z,104
2018-05-08T03:49:17.072Z,112
2018-05-08T03:49:49.091Z,112
2018-05-08T03:50:21.740Z,116
2018-05-08T03:50:53.793Z,124
2018-05-08T03:51:25.808Z,124
2018-05-08T03:51:57.811Z,132
2018-05-08T03:52:29.922Z,136
2018-05-08T03:53:01.981Z,140
2018-05-08T03:53:34.082Z,144
2018-05-08T03:54:06.110Z,152
2018-05-08T03:54:38.139Z,152
2018-05-08T03:55:10.192Z,160
2018-05-08T03:55:42.230Z,164
2018-05-08T03:56:14.262Z,168
2018-05-08T03:56:46.313Z,176
2018-05-08T03:57:18.454Z,176
2018-05-08T03:57:50.539Z,184
2018-05-08T03:58:22.575Z,188
2018-05-08T03:58:54.598Z,192
2018-05-08T03:59:26.624Z,200
2018-05-08T03:59:58.605Z,200
2018-05-08T04:00:30.658Z,208
2018-05-08T04:01:02.712Z,216
2018-05-08T04:01:34.742Z,216
2018-05-08T04:02:06.865Z,224
2018-05-08T04:02:38.877Z,228
2018-05-08T04:03:10.903Z,236
2018-05-08T04:03:43.930Z,236
2018-05-08T04:04:15.954Z,244
2018-05-08T04:04:48.003Z,252
2018-05-08T04:05:20.160Z,256
2018-05-08T04:05:52.169Z,260
2018-05-08T04:06:24.190Z,264
2018-05-08T04:06:56.231Z,272
2018-05-08T04:07:28.286Z,276
2018-05-08T04:08:00.322Z,280
2018-05-08T04:08:32.342Z,284
2018-05-08T04:09:04.390Z,292
2018-05-08T04:09:36.424Z,296
2018-05-08T04:10:08.473Z,300
2018-05-08T04:10:40.456Z,308
2018-05-08T04:11:12.468Z,312
2018-05-08T04:11:44.482Z,316
2018-05-08T04:12:16.515Z,320
2018-05-08T04:12:48.590Z,328
2018-05-08T04:13:20.630Z,328
2018-05-08T04:13:52.679Z,336
2018-05-08T04:14:24.765Z,344
2018-05-08T04:14:56.834Z,344
2018-05-08T04:15:28.903Z,352
2018-05-08T04:16:00.948Z,356
2018-05-08T04:16:32.966Z,360
2018-05-08T04:17:04.976Z,368
2018-05-08T04:17:37.002Z,372
2018-05-08T04:18:09.945Z,376
2018-05-08T04:18:41.947Z,380
2018-05-08T04:19:13.921Z,384
2018-05-08T04:19:45.942Z,388
2018-05-08T04:20:17.948Z,396
2018-05-08T04:20:50.017Z,400
2018-05-08T04:21:22.068Z,408
2018-05-08T04:21:54.082Z,412
2018-05-08T04:22:26.203Z,420
2018-05-08T04:22:59.045Z,428
2018-05-08T04:23:31.066Z,436
2018-05-08T04:24:03.091Z,440
2018-05-08T04:24:35.125Z,444
2018-05-08T04:25:07.160Z,452
2018-05-08T04:25:39.197Z,452
2018-05-08T04:26:11.824Z,460
2018-05-08T04:26:43.863Z,468
2018-05-08T04:27:15.878Z,476
2018-05-08T04:27:47.949Z,488
2018-05-08T04:28:19.989Z,504
2018-05-08T04:28:52.027Z,516
2018-05-08T04:29:24.063Z,524
2018-05-08T04:29:56.179Z,540
2018-05-08T04:30:28.226Z,548
2018-05-08T04:31:01.028Z,560
2018-05-08T04:31:33.715Z,576
2018-05-08T04:32:05.781Z,584
2018-05-08T04:32:37.801Z,604
2018-05-08T04:33:09.860Z,612
2018-05-08T04:33:41.865Z,620
2018-05-08T04:34:13.879Z,628
2018-05-08T04:34:45.921Z,636
2018-05-08T04:35:17.963Z,640
2018-05-08T04:35:49.978Z,648
2018-05-08T04:36:22.007Z,648
2018-05-08T04:36:54.043Z,652
2018-05-08T04:37:26.063Z,668
2018-05-08T04:37:58.100Z,696
2018-05-08T04:38:30.152Z,728
2018-05-08T04:39:02.181Z,740
2018-05-08T04:39:34.241Z,736
2018-05-08T04:40:06.362Z,712
2018-05-08T04:40:38.395Z,704
2018-05-08T04:41:10.415Z,700
2018-05-08T04:41:42.442Z,700
2018-05-08T04:42:14.496Z,684
2018-05-08T04:42:46.507Z,664
2018-05-08T04:43:18.523Z,648
2018-05-08T04:43:54.421Z,636
2018-05-08T04:44:26.452Z,632
2018-05-08T04:44:58.469Z,644
2018-05-08T04:45:31.416Z,684
2018-05-08T04:46:03.550Z,744
2018-05-08T04:46:35.561Z,816
2018-05-08T04:47:07.586Z,888
2018-05-08T04:47:39.595Z,944
2018-05-08T04:48:11.602Z,984
2018-05-08T04:48:43.678Z,1012
2018-05-08T04:49:15.711Z,1028
2018-05-08T04:49:47.715Z,1048
2018-05-08T04:50:19.753Z,1068
2018-05-08T04:50:51.809Z,1084
2018-05-08T04:51:23.812Z,1100
2018-05-08T04:51:55.849Z,1116
2018-05-08T04:52:27.984Z,1136
2018-05-08T04:53:00.032Z,1152
2018-05-08T04:53:32.039Z,1172
2018-05-08T04:54:04.180Z,1184
2018-05-08T04:54:36.289Z,1204
2018-05-08T04:55:08.280Z,1224
2018-05-08T04:55:40.322Z,1240
2018-05-08T04:56:12.352Z,1260
2018-05-08T04:56:44.454Z,1284
2018-05-08T04:57:16.439Z,1304
2018-05-08T04:57:48.449Z,1324
2018-05-08T04:58:20.489Z,1344
2018-05-08T04:58:52.456Z,1368
2018-05-08T04:59:24.485Z,1384
2018-05-08T04:59:56.471Z,1408
2018-05-08T05:00:28.480Z,1428
2018-05-08T05:01:00.540Z,1448
2018-05-08T05:01:32.571Z,1472
2018-05-08T05:02:04.604Z,1492
2018-05-08T05:02:36.682Z,1516
2018-05-08T05:03:08.708Z,1540
2018-05-08T05:03:40.708Z,1568
2018-05-08T05:04:12.748Z,1588
2018-05-08T05:04:44.768Z,1608
2018-05-08T05:05:16.756Z,1624
2018-05-08T05:05:48.789Z,1656
2018-05-08T05:06:20.829Z,1672
2018-05-08T05:06:52.879Z,1696
2018-05-08T05:07:24.905Z,1720
2018-05-08T05:07:56.967Z,1744
2018-05-08T05:08:28.991Z,1768
2018-05-08T05:09:01.045Z,1792
2018-05-08T05:09:33.091Z,1812
2018-05-08T05:10:05.122Z,1840
2018-05-08T05:10:37.240Z,1864
2018-05-08T05:11:09.841Z,1884
2018-05-08T05:11:41.837Z,1912
2018-05-08T05:12:13.944Z,1940
2018-05-08T05:12:45.939Z,1964
2018-05-08T05:13:17.923Z,1912
2018-05-08T05:13:50.548Z,2012
2018-05-08T05:14:22.580Z,2032
2018-05-08T05:14:54.628Z,2056
2018-05-08T05:15:26.708Z,2080
2018-05-08T05:15:58.731Z,2104
2018-05-08T05:16:30.726Z,2124
2018-05-08T05:17:02.744Z,2152
2018-05-08T05:17:34.778Z,2172
2018-05-08T05:18:06.816Z,2196
2018-05-08T05:18:38.857Z,2220
2018-05-08T05:19:10.850Z,2248
2018-05-08T05:19:43.351Z,2264
2018-05-08T05:20:15.401Z,2288
2018-05-08T05:20:47.406Z,2316
2018-05-08T05:21:19.467Z,2340
2018-05-08T05:21:51.508Z,2360
2018-05-08T05:22:23.509Z,2380
2018-05-08T05:22:55.529Z,2400
2018-05-08T05:23:27.531Z,2412
2018-05-08T05:23:59.543Z,2436
2018-05-08T05:24:31.620Z,2452
2018-05-08T05:25:03.627Z,2468
2018-05-08T05:25:35.668Z,2484
2018-05-08T05:26:07.715Z,2504
2018-05-08T05:26:39.874Z,2524
2018-05-08T05:27:11.895Z,2536
2018-05-08T05:27:44.046Z,2556
2018-05-08T05:28:16.050Z,2576
2018-05-08T05:28:48.067Z,2588
2018-05-08T05:29:20.089Z,2612
2018-05-08T05:29:52.246Z,2624
2018-05-08T05:30:25.462Z,2640
2018-05-08T05:30:57.565Z,2660
2018-05-08T05:31:29.716Z,2680
2018-05-08T05:32:01.744Z,2696
2018-05-08T05:32:34.285Z,2712
2018-05-08T05:33:06.291Z,2728
2018-05-08T05:33:38.462Z,2748
2018-05-08T05:34:10.557Z,2768
2018-05-08T05:34:42.599Z,2780
2018-05-08T05:35:14.698Z,2800
2018-05-08T05:35:46.752Z,2820
2018-05-08T05:36:18.707Z,2832
2018-05-08T05:36:50.955Z,2852
2018-05-08T05:37:23.020Z,2868
2018-05-08T05:37:55.009Z,2888
2018-05-08T05:38:27.101Z,2904
2018-05-08T05:38:59.128Z,2920
2018-05-08T05:39:31.302Z,2940
2018-05-08T05:40:03.362Z,2960
2018-05-08T05:40:35.379Z,2980
2018-05-08T05:41:07.417Z,3000
2018-05-08T05:41:39.414Z,3020
2018-05-08T05:42:11.400Z,3036
2018-05-08T05:42:43.680Z,3060
2018-05-08T05:43:15.629Z,3076
2018-05-08T05:43:47.656Z,3100
2018-05-08T05:44:19.678Z,3116
2018-05-08T05:44:51.710Z,3140
2018-05-08T05:45:23.739Z,3164
2018-05-08T05:45:55.868Z,3180
2018-05-08T05:46:27.991Z,3204
2018-05-08T05:47:00.048Z,3228
2018-05-08T05:47:32.066Z,3252
2018-05-08T05:48:04.111Z,3272
2018-05-08T05:48:36.124Z,3300
2018-05-08T05:49:08.182Z,3316
2018-05-08T05:49:40.219Z,3336
2018-05-08T05:50:12.238Z,3360
2018-05-08T05:50:44.300Z,3384
2018-05-08T05:51:16.310Z,3404
2018-05-08T05:51:48.306Z,3424
2018-05-08T05:52:20.338Z,3444
2018-05-08T05:52:52.358Z,3460
2018-05-08T05:53:24.599Z,3488
2018-05-08T05:53:56.521Z,3508
2018-05-08T05:54:28.537Z,3528
2018-05-08T05:55:00.618Z,3552
2018-05-08T05:55:32.701Z,3576
2018-05-08T05:56:04.736Z,3596
2018-05-08T05:56:36.751Z,3620
2018-05-08T05:57:08.793Z,3636
2018-05-08T05:57:40.806Z,3660
2018-05-08T05:58:12.877Z,3680
2018-05-08T05:58:44.920Z,3708
2018-05-08T05:59:16.943Z,3732
2018-05-08T05:59:49.064Z,3752
2018-05-08T06:00:21.060Z,3776
2018-05-08T06:00:53.114Z,3800
2018-05-08T06:01:25.140Z,3816
2018-05-08T06:01:57.159Z,3844
2018-05-08T06:02:29.164Z,3864
2018-05-08T06:03:01.183Z,3888
2018-05-08T06:03:33.225Z,3912
2018-05-08T06:04:05.269Z,3936
2018-05-08T06:04:37.289Z,3956
2018-05-08T06:05:09.795Z,3980
2018-05-08T06:05:41.848Z,4004
2018-05-08T06:06:13.892Z,4024
2018-05-08T06:06:45.973Z,4040
2018-05-08T06:07:18.005Z,4072
2018-05-08T06:07:50.027Z,4088
2018-05-08T06:08:22.548Z,4108
2018-05-08T06:08:54.532Z,4136
2018-05-08T06:09:26.674Z,4160
2018-05-08T06:09:58.767Z,4176
2018-05-08T06:10:30.843Z,4208
2018-05-08T06:11:05.440Z,4228
2018-05-08T06:11:38.837Z,4252
2018-05-08T06:12:10.928Z,4272
2018-05-08T06:12:43.126Z,4300
2018-05-08T06:13:15.169Z,4324
2018-05-08T06:13:47.210Z,4348
2018-05-08T06:14:19.330Z,4368
2018-05-08T06:14:51.367Z,4388
2018-05-08T06:15:23.477Z,4412
2018-05-08T06:15:55.534Z,4436
2018-05-08T06:16:27.554Z,4460
2018-05-08T06:16:59.605Z,4484
2018-05-08T06:17:31.620Z,4508
2018-05-08T06:18:03.624Z,4524
2018-05-08T06:18:35.688Z,4552
2018-05-08T06:19:07.676Z,4572
2018-05-08T06:19:39.725Z,4592
2018-05-08T06:20:11.742Z,4612
2018-05-08T06:20:44.282Z,4640
2018-05-08T06:21:16.427Z,4656
2018-05-08T06:21:48.498Z,4680
2018-05-08T06:22:20.526Z,4700
2018-05-08T06:22:52.546Z,4720
2018-05-08T06:23:24.580Z,4744
2018-05-08T06:23:56.679Z,4764
2018-05-08T06:24:28.822Z,4788
2018-05-08T06:25:00.913Z,4804
2018-05-08T06:25:32.976Z,4824
2018-05-08T06:26:05.021Z,4848
2018-05-08T06:26:37.114Z,4864
2018-05-08T06:27:09.774Z,4884
2018-05-08T06:27:42.485Z,4908
2018-05-08T06:28:15.711Z,4928
2018-05-08T06:28:48.242Z,4944
2018-05-08T06:29:20.446Z,4964
2018-05-08T06:29:53.122Z,4988
2018-05-08T06:30:26.866Z,5004
2018-05-08T06:31:00.981Z,5028
2018-05-08T06:31:35.289Z,5048
2018-05-08T06:32:08.857Z,5072
2018-05-08T06:32:42.622Z,5088
2018-05-08T06:33:15.767Z,5108
2018-05-08T06:33:48.262Z,5124
2018-05-08T06:34:21.279Z,5136
2018-05-08T06:34:54.874Z,5156
2018-05-08T06:35:27.772Z,5172
2018-05-08T06:36:00.358Z,5188
2018-05-08T06:36:33.910Z,5208
2018-05-08T06:37:07.350Z,5212
2018-05-08T06:37:39.618Z,5232
2018-05-08T06:38:11.641Z,5248
2018-05-08T06:38:43.715Z,5264
2018-05-08T06:39:15.782Z,5276
2018-05-08T06:39:47.916Z,5288
2018-05-08T06:40:19.987Z,5308
2018-05-08T06:40:52.230Z,5312
2018-05-08T06:41:24.448Z,5332
2018-05-08T06:41:56.504Z,5344
2018-05-08T06:42:28.543Z,5352
2018-05-08T06:43:00.548Z,5364
2018-05-08T06:43:32.603Z,5380
2018-05-08T06:44:04.639Z,5380
2018-05-08T06:44:36.724Z,5396
2018-05-08T06:45:08.750Z,5412
2018-05-08T06:45:40.797Z,5416
2018-05-08T06:46:12.833Z,5428
2018-05-08T06:46:45.091Z,5436
2018-05-08T06:47:17.148Z,5448
2018-05-08T06:47:49.223Z,5452
2018-05-08T06:48:21.259Z,5452
2018-05-08T06:48:53.339Z,5460
2018-05-08T06:49:26.024Z,5472
2018-05-08T06:49:58.046Z,5488
2018-05-08T06:50:30.291Z,5488
2018-05-08T06:51:02.409Z,5492
2018-05-08T06:51:34.480Z,5496
2018-05-08T06:52:06.528Z,5500
2018-05-08T06:52:38.602Z,5508
2018-05-08T06:53:10.632Z,5520
2018-05-08T06:53:42.680Z,5516
2018-05-08T06:54:14.719Z,5520
2018-05-08T06:54:46.760Z,5528
2018-05-08T06:55:18.792Z,5536
2018-05-08T06:55:50.782Z,5544
2018-05-08T06:56:22.838Z,5540
2018-05-08T06:56:54.858Z,5548
2018-05-08T06:57:26.872Z,5548
2018-05-08T06:57:58.915Z,5552
2018-05-08T06:58:30.920Z,5560
2018-05-08T06:59:02.971Z,5556
2018-05-08T06:59:35.042Z,5556
2018-05-08T07:00:07.115Z,5560
2018-05-08T07:00:39.289Z,5564
2018-05-08T07:01:11.368Z,5568
2018-05-08T07:01:43.497Z,5568
2018-05-08T07:02:15.604Z,5564
2018-05-08T07:02:47.637Z,5560
2018-05-08T07:03:19.659Z,5556
2018-05-08T07:03:51.701Z,5556
2018-05-08T07:04:23.782Z,5552
2018-05-08T07:04:55.886Z,5552
2018-05-08T07:05:27.951Z,5544
2018-05-08T07:05:59.952Z,5544
2018-05-08T07:06:31.974Z,5540
2018-05-08T07:07:04.023Z,5536
2018-05-08T07:07:36.075Z,5532
2018-05-08T07:08:08.071Z,5520
2018-05-08T07:08:40.192Z,5520
2018-05-08T07:09:12.351Z,5520
2018-05-08T07:09:44.469Z,5516
2018-05-08T07:10:16.501Z,5504
2018-05-08T07:10:48.481Z,5508
2018-05-08T07:11:20.587Z,5508
2018-05-08T07:11:52.718Z,5496
2018-05-08T07:12:24.763Z,5496
2018-05-08T07:12:56.825Z,5492
2018-05-08T07:13:28.848Z,5484
2018-05-08T07:14:00.921Z,5484
2018-05-08T07:14:33.125Z,5484
2018-05-08T07:15:05.137Z,5480
2018-05-08T07:15:37.136Z,5468
2018-05-08T07:16:09.924Z,5468
2018-05-08T07:16:42.247Z,5456
2018-05-08T07:17:14.259Z,5452
2018-05-08T07:17:46.288Z,5444
2018-05-08T07:18:18.438Z,5440
2018-05-08T07:18:50.612Z,5436
2018-05-08T07:19:23.508Z,5428
2018-05-08T07:19:55.528Z,5420
2018-05-08T07:20:27.572Z,5416
2018-05-08T07:20:59.643Z,5412
2018-05-08T07:21:31.679Z,5404
2018-05-08T07:22:03.692Z,5404
2018-05-08T07:22:35.847Z,5400
2018-05-08T07:23:07.897Z,5396
2018-05-08T07:23:39.922Z,5392
2018-05-08T07:24:12.084Z,5388
2018-05-08T07:24:44.171Z,5380
2018-05-08T07:25:16.238Z,5376
2018-05-08T07:25:48.247Z,5376
2018-05-08T07:26:20.289Z,5368
2018-05-08T07:26:52.382Z,5364
2018-05-08T07:27:24.519Z,5360
2018-05-08T07:27:56.583Z,5352
2018-05-08T07:28:28.604Z,5348
2018-05-08T07:29:00.643Z,5344
2018-05-08T07:29:32.670Z,5340
2018-05-08T07:30:04.731Z,5336
2018-05-08T07:30:37.212Z,5328
2018-05-08T07:31:09.457Z,5316
2018-05-08T07:31:41.373Z,5312